BIAR

Akureyri Airport

Akureyri, Iceland
METAR BIAR 122100Z 21002KT CAVOK 02/M00 Q1006
Observed Flight Rules
Dec-12 @ 21:00 UTC (23 minutes ago) Visual Flight Rules
Wind Visibility Clouds
210° at 2 knots 10,000+ meters
  • Clear skies
Temperatures Readings
Current 2°C / 36°F
Dewpoint 0°C / 32°F
Humidity 87%
Altimeter 29.7" Hg
Pressure 1006 hPa
Elevation 27
METAR BIAR 122100Z 21002KT CAVOK 02/M00 Q1006
Observed Flight Rules
Dec-12 @ 21:00 UTC
(23 minutes ago)
VFR
Wind Visibility
210° at 2 knots 10,000+ meters
Clouds
  • Clear skies
Temperature Dewpoint
2°C / 36°F 0°C / 32°F
Humidity Altimeter Pressure
87% 29.7" Hg 1006 hPa